Главная страница
METAR-TAF:

METAR-TAF

Аэропорты :

Каир, Египет

широта: 30-08N, долгота: 031-24E, высота над уровнем моря: 64 м

Текущие метеонаблюдения

Эта сводка был подготовлена 24 минут назад, в 02:00 UTC
Ветер 11 Узел от юго-западный
Температура 17°C
Влажность 55%
Давление 1012 hPa
Видимость 10 км и более
Нет облачности ниже 1500 м, и нет кучево-дождевой облачности

METAR: HECA 230200Z 22011KT CAVOK 17/08 Q1012 NOSIG

Время: 04:24 (02:24 UTC)

Прогноз

Эта сводка был подготовлена 3 часа и 24 минут назад, в 23:00 UTC
Прогноз действительный с 23-го 00 UTC до 24-го 06 UTC
Ветер 8 Узел от юго-западный с порывами до 18 Узел
Видимость: 6000 м
временами
С 23-го 00 UTC до 23-го 06 UTC
Видимость: 3000 м
песок
изменения
С 23-го 11 UTC до 23-го 13 UTC
Ветер 11 Узел от западный
Видимость 10 км и более
Рассеянная облачность на высоте 2500 фута

TAF: HECA 222300Z 2300/2406 23008G18KT 6000 NSC TEMPO 2300/2306 3000 SA BECMG 2311/2313 28011KT 9999 BKN025

Метеонаблюдения и прогнозы для более 4000 аэропортов (сводки METAR и TAF).

Имеющиеся станции представлены на карте желтыми и красными точками.

Чтобы увидеть название станции, наведите на нее мышь.

Затем щелкните, чтобы увидеть метеонаблюдения и метеопрогнозы.

Управление картой: чтобы увеличить масштаб, щелкните зеленые кнопки с черным крестиком; чтобы уменьшить масштаб, щелкните зеленую кнопку с тире; для просмотра соседних карт щелкайте зеленые стрелки.


METAR-TAF: